createdAt,value
2022-11-10T00:01:15.455Z,13.31
2022-11-10T00:04:04.586Z,13.40
2022-11-10T00:06:50.530Z,13.32
2022-11-10T00:09:37.055Z,13.30
2022-11-10T00:12:23.865Z,13.34
2022-11-10T00:15:29.870Z,13.33
2022-11-10T00:18:15.798Z,13.30
2022-11-10T00:21:07.951Z,13.28
2022-11-10T00:23:53.834Z,13.30
2022-11-10T00:26:40.065Z,13.35
2022-11-10T00:29:26.776Z,13.34
2022-11-10T00:32:14.640Z,13.31
2022-11-10T00:35:00.895Z,13.38
2022-11-10T00:37:50.546Z,13.44
2022-11-10T00:40:37.107Z,13.40
2022-11-10T00:43:26.519Z,13.31
2022-11-10T00:46:13.757Z,13.29
2022-11-10T00:49:00.018Z,13.35
2022-11-10T00:51:47.218Z,13.31
2022-11-10T00:54:33.663Z,13.38
2022-11-10T00:57:19.859Z,13.36
2022-11-10T01:00:06.960Z,13.42
2022-11-10T01:02:53.215Z,13.45
2022-11-10T01:05:39.455Z,13.43
2022-11-10T01:08:25.965Z,13.44
2022-11-10T01:11:17.577Z,13.47
2022-11-10T01:14:03.567Z,13.38
2022-11-10T01:16:50.959Z,13.40
2022-11-10T01:19:36.863Z,13.33
2022-11-10T01:22:23.314Z,13.40
2022-11-10T01:25:09.932Z,13.42
2022-11-10T01:27:56.419Z,13.47
2022-11-10T01:30:42.803Z,13.53
2022-11-10T01:33:29.191Z,13.44
2022-11-10T01:36:15.475Z,13.51
2022-11-10T01:39:01.331Z,13.47
2022-11-10T01:41:47.512Z,13.39
2022-11-10T01:44:35.146Z,13.40
2022-11-10T01:47:21.538Z,13.50
2022-11-10T01:50:08.839Z,13.55
2022-11-10T01:53:00.119Z,13.57
2022-11-10T01:55:48.827Z,13.50
2022-11-10T01:58:40.238Z,13.47
2022-11-10T02:01:26.995Z,13.40
2022-11-10T02:04:16.956Z,13.40
2022-11-10T02:07:04.998Z,13.31
2022-11-10T02:09:53.923Z,13.14
2022-11-10T02:12:40.829Z,13.06
2022-11-10T02:15:26.847Z,13.08
2022-11-10T02:18:13.053Z,13.23
2022-11-10T02:20:59.631Z,13.28
2022-11-10T02:23:51.505Z,13.36
2022-11-10T02:26:44.340Z,13.47
2022-11-10T02:29:30.268Z,13.55
2022-11-10T02:32:16.302Z,13.60
2022-11-10T02:35:02.575Z,13.59
2022-11-10T02:37:49.678Z,13.53
2022-11-10T02:40:37.008Z,13.52
2022-11-10T02:43:23.929Z,13.61
2022-11-10T02:46:10.632Z,13.63
2022-11-10T02:48:56.986Z,13.52
2022-11-10T02:51:43.116Z,13.54
2022-11-10T02:54:29.030Z,13.57
2022-11-10T02:57:14.910Z,13.42
2022-11-10T03:00:00.956Z,13.26
2022-11-10T03:02:47.064Z,13.11
2022-11-10T03:05:33.456Z,13.00
2022-11-10T03:08:20.100Z,13.11
2022-11-10T03:11:06.504Z,13.27
2022-11-10T03:14:01.605Z,13.34
2022-11-10T03:16:48.772Z,13.33
2022-11-10T03:19:35.315Z,13.37
2022-11-10T03:22:21.948Z,13.41
2022-11-10T03:25:08.991Z,13.43
2022-11-10T03:27:54.839Z,13.51
2022-11-10T03:30:41.196Z,13.43
2022-11-10T03:33:27.605Z,13.53
2022-11-10T03:36:14.295Z,13.55
2022-11-10T03:39:01.419Z,13.57
2022-11-10T03:41:47.578Z,13.54
2022-11-10T03:44:34.196Z,13.51
2022-11-10T03:47:20.700Z,13.55
2022-11-10T03:50:08.132Z,13.36
2022-11-10T03:52:54.575Z,13.40
2022-11-10T03:55:40.359Z,13.52
2022-11-10T03:58:26.265Z,13.41
2022-11-10T04:01:12.890Z,13.44
2022-11-10T04:03:59.277Z,13.47
2022-11-10T04:07:04.759Z,13.39
2022-11-10T04:09:50.680Z,13.45
2022-11-10T04:12:55.079Z,13.52
2022-11-10T04:15:42.162Z,13.49
2022-11-10T04:18:29.900Z,13.47
2022-11-10T04:21:15.952Z,13.34
2022-11-10T04:24:02.422Z,13.31
2022-11-10T04:26:49.023Z,13.33
2022-11-10T04:29:35.843Z,13.48
2022-11-10T04:32:22.422Z,13.43
2022-11-10T04:35:09.859Z,13.41
2022-11-10T04:37:56.092Z,13.31
2022-11-10T04:40:42.925Z,13.46
2022-11-10T04:43:29.349Z,13.50
2022-11-10T04:46:27.718Z,13.39
2022-11-10T04:49:14.136Z,13.17
2022-11-10T04:52:00.501Z,13.04
2022-11-10T04:54:47.112Z,13.03
2022-11-10T04:57:33.348Z,13.07
2022-11-10T05:00:19.349Z,13.03
2022-11-10T05:03:09.549Z,13.12
2022-11-10T05:05:55.840Z,13.09
2022-11-10T05:08:42.914Z,13.06
2022-11-10T05:11:29.829Z,13.20
2022-11-10T05:14:16.705Z,13.18
2022-11-10T05:17:02.881Z,13.21
2022-11-10T05:19:49.172Z,13.38
2022-11-10T05:22:35.202Z,13.31
2022-11-10T05:25:21.319Z,13.32
2022-11-10T05:28:09.047Z,13.12
2022-11-10T05:30:55.392Z,13.13
2022-11-10T05:33:41.507Z,13.25
2022-11-10T05:36:28.017Z,13.30
2022-11-10T05:39:14.954Z,13.32
2022-11-10T05:42:01.041Z,13.26
2022-11-10T05:44:47.339Z,13.27
2022-11-10T05:47:37.181Z,13.31
2022-11-10T05:50:24.207Z,13.27
2022-11-10T05:53:10.255Z,13.42
2022-11-10T05:55:56.326Z,13.39
2022-11-10T05:58:43.580Z,13.36
2022-11-10T06:01:32.414Z,13.48
2022-11-10T06:04:18.810Z,13.48
2022-11-10T06:07:04.963Z,13.21
2022-11-10T06:09:51.578Z,13.16
2022-11-10T06:13:04.075Z,13.12
2022-11-10T06:15:50.670Z,13.25
2022-11-10T06:18:36.999Z,13.30
2022-11-10T06:21:22.952Z,13.18
2022-11-10T06:24:10.651Z,13.17
2022-11-10T06:26:56.700Z,13.24
2022-11-10T06:29:42.919Z,13.37
2022-11-10T06:32:29.227Z,13.13
2022-11-10T06:35:16.084Z,13.33
2022-11-10T06:38:04.804Z,13.50
2022-11-10T06:40:51.309Z,13.48
2022-11-10T06:43:37.828Z,13.34
2022-11-10T06:46:23.763Z,13.39
2022-11-10T06:49:09.691Z,13.39
2022-11-10T06:51:59.279Z,13.43
2022-11-10T06:54:46.094Z,13.50
2022-11-10T06:57:40.768Z,13.52
2022-11-10T07:00:28.962Z,13.61
2022-11-10T07:03:16.493Z,13.80
2022-11-10T07:06:02.750Z,13.88
2022-11-10T07:08:49.378Z,13.89
2022-11-10T07:11:35.188Z,13.79
2022-11-10T07:14:21.849Z,13.69
2022-11-10T07:17:07.932Z,13.70
2022-11-10T07:19:53.744Z,13.44
2022-11-10T07:22:39.469Z,13.34
2022-11-10T07:25:26.095Z,13.35
2022-11-10T07:28:12.952Z,13.34
2022-11-10T07:31:05.264Z,13.46
2022-11-10T07:33:54.500Z,13.67
2022-11-10T07:36:40.812Z,14.04
2022-11-10T07:39:27.061Z,13.97
2022-11-10T07:42:12.862Z,13.74
2022-11-10T07:44:59.663Z,13.66
2022-11-10T07:47:45.591Z,13.55
2022-11-10T07:50:33.851Z,13.69
2022-11-10T07:53:21.442Z,14.09
2022-11-10T07:56:08.205Z,13.90
2022-11-10T07:58:53.907Z,14.21
2022-11-10T08:01:39.903Z,14.57
2022-11-10T08:04:26.046Z,14.81
2022-11-10T08:07:12.452Z,14.59
2022-11-10T08:09:58.740Z,14.85
2022-11-10T08:12:44.471Z,14.93
2022-11-10T08:15:32.068Z,14.69
2022-11-10T08:18:23.190Z,14.61
2022-11-10T08:21:09.521Z,14.56
2022-11-10T08:23:55.691Z,15.05
2022-11-10T08:26:41.972Z,15.14
2022-11-10T08:29:28.615Z,15.24
2022-11-10T08:32:14.587Z,15.36
2022-11-10T08:35:00.905Z,15.22
2022-11-10T08:37:46.696Z,15.59
2022-11-10T08:40:32.784Z,15.79
2022-11-10T08:43:19.096Z,15.88
2022-11-10T08:46:05.959Z,16.07
2022-11-10T08:48:51.933Z,16.00
2022-11-10T08:51:39.370Z,15.84
2022-11-10T08:54:25.730Z,15.63
2022-11-10T08:57:11.830Z,15.53
2022-11-10T08:59:58.063Z,15.89
2022-11-10T09:02:43.883Z,15.99
2022-11-10T09:05:31.278Z,15.94
2022-11-10T09:08:17.879Z,15.59
2022-11-10T09:11:04.530Z,15.63
2022-11-10T09:13:50.919Z,15.51
2022-11-10T09:16:37.158Z,15.53
2022-11-10T09:19:23.633Z,15.61
2022-11-10T09:22:09.783Z,15.72
2022-11-10T09:24:56.582Z,15.94
2022-11-10T09:27:42.299Z,15.87
2022-11-10T09:30:29.161Z,15.76
2022-11-10T09:33:15.944Z,16.03
2022-11-10T09:36:02.826Z,16.10
2022-11-10T09:38:49.940Z,15.98
2022-11-10T09:41:40.631Z,15.75
2022-11-10T09:44:52.060Z,15.84
2022-11-10T09:48:05.269Z,15.71
2022-11-10T09:50:57.207Z,15.60
2022-11-10T09:53:55.369Z,15.44
2022-11-10T09:56:41.789Z,15.53
2022-11-10T09:59:32.346Z,15.59
2022-11-10T10:02:38.652Z,15.48
2022-11-10T10:05:33.890Z,15.37
2022-11-10T10:08:27.074Z,15.49
2022-11-10T10:11:18.650Z,15.51
2022-11-10T10:14:32.351Z,15.61
2022-11-10T10:17:48.917Z,15.70
2022-11-10T10:21:11.894Z,16.05
2022-11-10T10:24:13.932Z,16.14
2022-11-10T10:27:07.457Z,16.38
2022-11-10T10:29:53.934Z,16.58
2022-11-10T10:32:41.384Z,17.03
2022-11-10T10:35:28.413Z,17.64
2022-11-10T10:41:10.601Z,18.64
2022-11-10T10:43:59.710Z,19.56
2022-11-10T10:47:06.350Z,19.98
2022-11-10T10:49:52.705Z,20.26
2022-11-10T10:52:38.785Z,19.77
2022-11-10T10:55:30.522Z,20.54
2022-11-10T10:58:37.114Z,20.84
2022-11-10T11:01:37.310Z,21.25
2022-11-10T11:04:36.108Z,20.91
2022-11-10T11:07:24.221Z,19.70
2022-11-10T11:10:21.217Z,20.46
2022-11-10T11:13:23.987Z,20.69
2022-11-10T11:16:12.688Z,21.64
2022-11-10T11:18:59.604Z,21.75
2022-11-10T11:22:37.701Z,20.98
2022-11-10T11:25:36.217Z,20.69
2022-11-10T11:28:40.996Z,20.51
2022-11-10T11:31:42.717Z,21.02
2022-11-10T11:34:35.347Z,20.78
2022-11-10T11:37:33.791Z,20.78
2022-11-10T11:40:38.791Z,21.04
2022-11-10T11:43:49.967Z,22.32
2022-11-10T11:46:52.575Z,19.71
2022-11-10T11:50:08.123Z,19.88
2022-11-10T11:53:20.416Z,20.19
2022-11-10T11:56:23.677Z,20.21
2022-11-10T11:59:21.024Z,19.99
2022-11-10T12:02:33.478Z,20.24
2022-11-10T12:05:30.734Z,19.39
2022-11-10T12:08:36.832Z,19.59
2022-11-10T12:11:55.863Z,19.22
2022-11-10T12:14:54.735Z,19.61
2022-11-10T12:17:51.780Z,21.27
2022-11-10T12:20:51.788Z,21.40
2022-11-10T12:24:12.594Z,20.36
2022-11-10T12:27:04.930Z,20.27
2022-11-10T12:29:57.029Z,19.60
2022-11-10T12:32:53.727Z,19.59
2022-11-10T12:35:44.451Z,19.30
2022-11-10T12:39:09.978Z,18.56
2022-11-10T12:41:59.660Z,18.39
2022-11-10T12:45:00.514Z,18.77
2022-11-10T12:47:48.545Z,19.11
2022-11-10T12:50:42.846Z,19.80
2022-11-10T12:53:41.804Z,20.29
2022-11-10T12:56:39.182Z,21.13
2022-11-10T12:59:30.276Z,22.69
2022-11-10T13:02:23.260Z,21.83
2022-11-10T13:05:15.567Z,21.99
2022-11-10T13:08:14.180Z,23.26
2022-11-10T13:11:12.198Z,23.71
2022-11-10T13:14:21.329Z,23.82
2022-11-10T13:17:10.264Z,21.92
2022-11-10T13:20:09.597Z,20.67
2022-11-10T13:23:23.194Z,19.96
2022-11-10T13:26:41.127Z,21.39
2022-11-10T13:29:42.885Z,21.38
2022-11-10T13:32:34.266Z,21.49
2022-11-10T13:35:30.093Z,21.20
2022-11-10T13:38:36.874Z,22.70
2022-11-10T13:41:26.381Z,23.17
2022-11-10T13:44:33.348Z,22.92
2022-11-10T13:47:58.683Z,25.48
2022-11-10T13:51:22.990Z,26.21
2022-11-10T13:54:30.884Z,23.73
2022-11-10T13:57:36.633Z,24.96
2022-11-10T14:00:26.985Z,23.91
2022-11-10T14:03:45.166Z,25.78
2022-11-10T14:06:37.717Z,27.52
2022-11-10T14:09:46.582Z,26.17
2022-11-10T14:12:46.594Z,25.84
2022-11-10T14:15:47.888Z,26.32
2022-11-10T14:18:47.966Z,25.90
2022-11-10T14:21:47.579Z,23.77
2022-11-10T14:24:48.771Z,23.57
2022-11-10T14:27:38.875Z,22.99
2022-11-10T14:30:30.173Z,24.21
2022-11-10T14:33:16.518Z,23.94
2022-11-10T14:36:06.540Z,22.90
2022-11-10T14:38:53.587Z,22.01
2022-11-10T14:41:47.799Z,21.22
2022-11-10T14:44:35.392Z,20.39
2022-11-10T14:47:31.325Z,19.90
2022-11-10T14:50:20.554Z,19.08
2022-11-10T14:53:21.309Z,18.83
2022-11-10T14:56:15.979Z,18.50
2022-11-10T14:59:05.287Z,18.20
2022-11-10T15:02:01.082Z,17.64
2022-11-10T15:04:50.380Z,17.52
2022-11-10T15:07:36.817Z,17.70
2022-11-10T15:10:26.993Z,17.64
2022-11-10T15:13:14.274Z,17.62
2022-11-10T15:16:25.594Z,17.38
2022-11-10T15:19:29.937Z,17.39
2022-11-10T15:22:32.663Z,17.15
2022-11-10T15:25:22.512Z,16.81
2022-11-10T15:28:28.111Z,16.74
2022-11-10T15:31:26.790Z,16.59
2022-11-10T15:34:47.726Z,16.54
2022-11-10T15:37:34.585Z,16.49
2022-11-10T15:40:41.152Z,16.31
2022-11-10T15:43:28.061Z,16.20
2022-11-10T15:46:21.442Z,16.09
2022-11-10T15:49:35.974Z,16.09
2022-11-10T15:52:23.907Z,15.98
2022-11-10T15:55:24.033Z,15.86
2022-11-10T15:58:19.703Z,15.81
2022-11-10T16:01:06.758Z,15.74
2022-11-10T16:03:53.126Z,15.58
2022-11-10T16:06:40.134Z,15.57
2022-11-10T16:09:26.453Z,15.61
2022-11-10T16:12:22.785Z,15.51
2022-11-10T16:15:18.388Z,15.50
2022-11-10T16:18:09.114Z,15.26
2022-11-10T16:20:56.431Z,15.17
2022-11-10T16:23:43.826Z,15.15
2022-11-10T16:26:30.973Z,15.06
2022-11-10T16:29:19.862Z,14.95
2022-11-10T16:32:07.262Z,15.00
2022-11-10T16:34:55.263Z,14.91
2022-11-10T16:37:43.270Z,14.82
2022-11-10T16:40:30.558Z,14.74
2022-11-10T16:43:18.061Z,14.72
2022-11-10T16:46:15.469Z,14.71
2022-11-10T16:49:04.834Z,14.78
2022-11-10T16:51:51.298Z,14.72
2022-11-10T16:54:38.359Z,14.78
2022-11-10T16:57:24.796Z,14.86
2022-11-10T17:00:12.786Z,14.93
2022-11-10T17:03:30.760Z,14.88
2022-11-10T17:06:19.974Z,14.83
2022-11-10T17:09:26.748Z,14.81
2022-11-10T17:12:14.865Z,14.82
2022-11-10T17:15:01.294Z,14.79
2022-11-10T17:17:52.411Z,14.71
2022-11-10T17:20:43.907Z,14.69
2022-11-10T17:23:30.397Z,14.81
2022-11-10T17:26:20.171Z,14.75
2022-11-10T17:29:06.819Z,14.63
2022-11-10T17:31:54.307Z,14.71
2022-11-10T17:34:41.588Z,14.57
2022-11-10T17:37:28.058Z,14.47
2022-11-10T17:40:18.963Z,14.37
2022-11-10T17:43:05.812Z,14.31
2022-11-10T17:45:52.814Z,14.26
2022-11-10T17:48:39.836Z,14.19
2022-11-10T17:51:26.588Z,14.07
2022-11-10T17:54:15.187Z,14.07
2022-11-10T17:57:04.533Z,14.19
2022-11-10T17:59:51.135Z,14.16
2022-11-10T18:02:37.565Z,14.05
2022-11-10T18:05:24.098Z,14.00
2022-11-10T18:08:12.422Z,13.96
2022-11-10T18:11:00.980Z,14.07
2022-11-10T18:13:47.301Z,13.98
2022-11-10T18:16:34.693Z,13.90
2022-11-10T18:19:21.396Z,13.80
2022-11-10T18:22:11.336Z,13.76
2022-11-10T18:24:58.580Z,13.73
2022-11-10T18:27:45.928Z,13.83
2022-11-10T18:30:35.255Z,13.81
2022-11-10T18:33:22.696Z,13.73
2022-11-10T18:36:09.716Z,13.75
2022-11-10T18:38:56.572Z,13.67
2022-11-10T18:41:49.090Z,13.68
2022-11-10T18:44:37.246Z,13.81
2022-11-10T18:47:24.140Z,13.78
2022-11-10T18:50:13.276Z,13.77
2022-11-10T18:53:00.448Z,13.81
2022-11-10T18:55:56.822Z,13.75
2022-11-10T18:58:44.343Z,13.64
2022-11-10T19:01:31.974Z,13.64
2022-11-10T19:04:19.191Z,13.66
2022-11-10T19:07:06.508Z,13.77
2022-11-10T19:09:54.353Z,13.65
2022-11-10T19:12:41.133Z,13.55
2022-11-10T19:15:27.669Z,13.50
2022-11-10T19:18:14.420Z,13.45
2022-11-10T19:21:27.665Z,13.43
2022-11-10T19:24:21.892Z,13.39
2022-11-10T19:27:14.287Z,13.30
2022-11-10T19:30:04.062Z,13.32
2022-11-10T19:32:50.958Z,13.20
2022-11-10T19:35:42.022Z,13.20
2022-11-10T19:38:29.125Z,13.22
2022-11-10T19:41:20.002Z,13.12
2022-11-10T19:44:06.786Z,13.12
2022-11-10T19:46:53.993Z,13.11
2022-11-10T19:49:41.037Z,13.15
2022-11-10T19:52:27.399Z,13.16
2022-11-10T19:55:13.367Z,13.08
2022-11-10T19:57:59.663Z,13.05
2022-11-10T20:00:47.924Z,13.07
2022-11-10T20:03:35.109Z,12.98
2022-11-10T20:06:23.761Z,13.09
2022-11-10T20:09:10.212Z,12.89
2022-11-10T20:11:56.503Z,12.94
2022-11-10T20:14:43.882Z,12.90
2022-11-10T20:17:29.976Z,13.03
2022-11-10T20:20:17.452Z,12.98
2022-11-10T20:23:06.672Z,12.92
2022-11-10T20:26:12.174Z,12.85
2022-11-10T20:28:58.999Z,12.75
2022-11-10T20:31:45.656Z,12.78
2022-11-10T20:34:32.812Z,12.72
2022-11-10T20:37:19.909Z,12.64
2022-11-10T20:40:18.901Z,12.75
2022-11-10T20:43:17.174Z,12.60
2022-11-10T20:46:06.378Z,12.61
2022-11-10T20:48:53.138Z,12.67
2022-11-10T20:51:40.391Z,12.49
2022-11-10T20:54:27.795Z,12.57
2022-11-10T20:57:14.605Z,12.52
2022-11-10T21:00:09.501Z,12.57
2022-11-10T21:02:59.398Z,12.42
2022-11-10T21:05:47.322Z,12.30
2022-11-10T21:08:39.651Z,12.33
2022-11-10T21:11:48.289Z,12.33
2022-11-10T21:14:37.151Z,12.23
2022-11-10T21:17:25.487Z,12.26
2022-11-10T21:20:16.467Z,12.18
2022-11-10T21:23:06.946Z,12.21
2022-11-10T21:25:57.701Z,12.24
2022-11-10T21:28:44.617Z,12.51
2022-11-10T21:31:39.724Z,12.26
2022-11-10T21:34:27.943Z,12.21
2022-11-10T21:37:17.241Z,12.11
2022-11-10T21:40:07.287Z,12.09
2022-11-10T21:43:00.070Z,12.06
2022-11-10T21:45:52.031Z,11.91
2022-11-10T21:48:42.033Z,11.90
2022-11-10T21:51:35.789Z,11.91
2022-11-10T21:54:25.837Z,11.84
2022-11-10T21:57:26.775Z,11.86
2022-11-10T22:00:24.786Z,11.90
2022-11-10T22:03:12.333Z,11.80
2022-11-10T22:06:06.533Z,11.82
2022-11-10T22:09:06.621Z,11.81
2022-11-10T22:12:26.230Z,11.74
2022-11-10T22:15:33.880Z,11.83
2022-11-10T22:18:41.383Z,11.77
2022-11-10T22:21:28.934Z,11.73
2022-11-10T22:24:27.025Z,11.67
2022-11-10T22:27:13.814Z,11.69
2022-11-10T22:30:01.863Z,11.61
2022-11-10T22:32:49.659Z,11.57
2022-11-10T22:35:46.193Z,11.58
2022-11-10T22:38:43.167Z,11.54
2022-11-10T22:41:48.538Z,11.51
2022-11-10T22:44:36.368Z,11.45
2022-11-10T22:47:23.695Z,11.38
2022-11-10T22:50:10.998Z,11.37
2022-11-10T22:52:57.729Z,11.33
2022-11-10T22:55:47.797Z,11.26
2022-11-10T22:58:35.609Z,11.31
2022-11-10T23:01:22.776Z,11.29
2022-11-10T23:04:11.083Z,11.25
2022-11-10T23:06:58.674Z,11.23
2022-11-10T23:09:46.877Z,11.16
2022-11-10T23:12:33.716Z,11.19
2022-11-10T23:15:20.468Z,11.04
2022-11-10T23:18:07.104Z,11.04
2022-11-10T23:21:02.077Z,11.12
2022-11-10T23:24:00.275Z,11.01
2022-11-10T23:26:50.460Z,11.12
2022-11-10T23:29:37.521Z,11.07
2022-11-10T23:32:24.483Z,11.04
2022-11-10T23:35:18.362Z,11.09
2022-11-10T23:38:05.920Z,11.02
2022-11-10T23:40:56.320Z,10.96
2022-11-10T23:43:44.532Z,10.96
2022-11-10T23:46:36.412Z,10.93
2022-11-10T23:49:23.321Z,10.93
2022-11-10T23:52:09.803Z,10.91
2022-11-10T23:55:00.089Z,10.87
2022-11-10T23:57:48.256Z,10.85
